Time;durP1;ratioP1;P1;durP2;ratioP2;P2;SDS_P1;SDS_P2;PMS_P1;PMS_P2;Temp;Humidity;BMP_temperature;BMP_pressure;BME280_temperature;BME280_humidity;BME280_pressure;Samples;Min_cycle;Max_cycle;Signal;HPM_P1;HPM_P2
2022/06/01 00:01:10;;;;;;;8.80;7.25;;;11.00;99.90;;;;;;5045193;28;20041;-83
2022/06/01 00:03:37;;;;;;;8.38;7.22;;;11.00;99.90;;;;;;5043701;28;20079;-84
2022/06/01 00:06:03;;;;;;;11.23;7.97;;;11.00;99.90;;;;;;5041965;28;20033;-84
2022/06/01 00:08:29;;;;;;;10.73;8.50;;;11.00;99.90;;;;;;5028296;28;20029;-83
2022/06/01 00:10:57;;;;;;;10.85;8.23;;;11.00;99.90;;;;;;5045928;28;20376;-84
2022/06/01 00:13:22;;;;;;;13.57;8.40;;;11.00;99.90;;;;;;5044784;28;20048;-84
2022/06/01 00:15:48;;;;;;;8.85;7.93;;;10.90;99.90;;;;;;5043100;28;20090;-83
2022/06/01 00:18:14;;;;;;;9.55;8.30;;;10.90;99.90;;;;;;5044127;28;20037;-82
2022/06/01 00:20:40;;;;;;;12.02;9.40;;;10.90;99.90;;;;;;5044443;28;20071;-83
2022/06/01 00:23:06;;;;;;;9.63;8.63;;;10.90;99.90;;;;;;5043866;28;20499;-83
2022/06/01 00:25:32;;;;;;;11.75;9.48;;;10.90;99.90;;;;;;5042933;28;20048;-83
2022/06/01 00:27:57;;;;;;;12.07;9.25;;;10.90;99.90;;;;;;5042616;28;20041;-83
2022/06/01 00:30:23;;;;;;;14.05;10.00;;;10.80;99.90;;;;;;5045022;28;20084;-83
2022/06/01 00:32:49;;;;;;;10.38;9.25;;;10.70;99.90;;;;;;5046666;28;20037;-85
2022/06/01 00:35:17;;;;;;;10.80;9.68;;;10.70;99.90;;;;;;5026752;28;20041;-84
2022/06/01 00:37:43;;;;;;;12.15;9.60;;;10.80;99.90;;;;;;5043403;28;20379;-84
2022/06/01 00:40:11;;;;;;;11.55;9.70;;;10.80;99.90;;;;;;5042715;28;20432;-85
2022/06/01 00:42:40;;;;;;;11.27;10.18;;;10.80;99.90;;;;;;5045344;28;20041;-83
2022/06/01 00:45:09;;;;;;;11.52;9.57;;;10.80;99.90;;;;;;5043547;28;20087;-84
2022/06/01 00:47:35;;;;;;;11.00;9.85;;;10.70;99.90;;;;;;5043729;28;20036;-84
2022/06/01 00:50:15;;;;;;;10.70;9.32;;;10.80;99.90;;;;;;5045008;28;20414;-83
2022/06/01 00:52:46;;;;;;;10.68;9.65;;;10.80;99.90;;;;;;5042916;28;20041;-84
2022/06/01 00:55:17;;;;;;;10.48;9.20;;;10.90;99.90;;;;;;5048390;28;20052;-85
2022/06/01 00:57:44;;;;;;;10.98;9.63;;;10.90;99.90;;;;;;5046828;28;20029;-84
2022/06/01 01:00:15;;;;;;;11.48;10.27;;;11.00;99.90;;;;;;5047681;28;20402;-84
2022/06/01 01:02:41;;;;;;;10.73;9.63;;;11.00;99.90;;;;;;5046190;28;20041;-84
2022/06/01 01:05:10;;;;;;;11.45;9.95;;;11.00;99.90;;;;;;5048280;28;20032;-84
2022/06/01 01:07:36;;;;;;;11.95;9.95;;;11.00;99.90;;;;;;5047858;28;20041;-83
2022/06/01 01:10:03;;;;;;;12.88;10.20;;;11.00;99.90;;;;;;5047925;28;20037;-83
2022/06/01 01:12:55;;;;;;;11.60;10.27;;;11.00;99.90;;;;;;5048369;28;20044;-83
2022/06/01 01:15:15;;;;;;;11.80;10.48;;;10.90;99.90;;;;;;5047629;28;20049;-84
2022/06/01 01:17:40;;;;;;;11.98;10.75;;;10.90;99.90;;;;;;5047720;28;20434;-84
2022/06/01 01:20:07;;;;;;;12.57;10.93;;;11.00;99.90;;;;;;5031851;28;20044;-85
2022/06/01 01:22:32;;;;;;;11.13;10.02;;;11.00;99.90;;;;;;5048337;28;20702;-84
2022/06/01 01:25:24;;;;;;;11.82;10.55;;;11.00;99.90;;;;;;5046598;28;20055;-84
2022/06/01 01:27:56;;;;;;;11.35;10.20;;;10.90;99.90;;;;;;5065062;28;20072;-84
2022/06/01 01:30:26;;;;;;;11.63;10.43;;;10.90;99.90;;;;;;5030996;28;20052;-84
2022/06/01 01:32:52;;;;;;;12.55;10.88;;;10.90;99.90;;;;;;5049638;28;20094;-84
2022/06/01 01:35:19;;;;;;;11.85;9.98;;;10.90;99.90;;;;;;5030682;28;20045;-84
2022/06/01 01:37:47;;;;;;;12.82;10.75;;;10.90;99.90;;;;;;5030585;28;20076;-85
2022/06/01 01:40:12;;;;;;;12.38;11.07;;;11.00;99.90;;;;;;5047548;28;20190;-84
2022/06/01 01:42:39;;;;;;;11.20;10.10;;;10.90;99.90;;;;;;5049260;28;20135;-84
2022/06/01 01:45:24;;;;;;;12.98;10.50;;;10.90;99.90;;;;;;5031938;28;20124;-84
2022/06/01 01:47:51;;;;;;;11.73;10.15;;;10.80;99.90;;;;;;5044566;28;20043;-84
2022/06/01 01:50:16;;;;;;;12.02;10.82;;;10.80;99.90;;;;;;5046229;28;20041;-84
2022/06/01 01:52:44;;;;;;;10.23;9.23;;;10.70;99.90;;;;;;5047235;28;20491;-84
2022/06/01 01:55:32;;;;;;;15.07;10.57;;;10.70;99.90;;;;;;5045485;28;20048;-84
2022/06/01 01:58:53;;;;;;;12.10;10.35;;;10.70;99.90;;;;;;5063792;28;20037;-84
2022/06/01 02:01:25;;;;;;;14.38;11.48;;;10.70;99.90;;;;;;5012890;28;20049;-84
2022/06/01 02:06:03;;;;;;;12.15;10.57;;;10.70;99.90;;;;;;5047027;28;20037;-85
2022/06/01 02:07:03;;;;;;;11.30;10.13;;;10.70;99.90;;;;;;5048253;28;20045;-84
2022/06/01 02:12:40;;;;;;;13.30;11.05;;;10.70;99.90;;;;;;5048717;28;21986;-84
2022/06/01 02:14:59;;;;;;;15.15;11.40;;;10.60;99.90;;;;;;5043631;28;20041;-83
2022/06/01 02:17:48;;;;;;;12.60;11.13;;;10.60;99.90;;;;;;5045794;28;20216;-84
2022/06/01 02:20:29;;;;;;;14.38;12.50;;;10.50;99.90;;;;;;5047976;28;20033;-84
2022/06/01 02:22:55;;;;;;;12.55;11.25;;;10.50;99.90;;;;;;5046562;28;20495;-84
2022/06/01 02:25:21;;;;;;;14.25;12.20;;;10.50;99.90;;;;;;5044415;28;20068;-84
2022/06/01 02:27:50;;;;;;;14.20;12.70;;;10.50;99.90;;;;;;5046617;28;20513;-84
2022/06/01 02:30:21;;;;;;;15.40;13.07;;;10.50;99.90;;;;;;5030799;28;20037;-84
2022/06/01 02:32:48;;;;;;;14.45;12.45;;;10.50;99.90;;;;;;5048336;28;20123;-84
2022/06/01 02:35:16;;;;;;;13.77;12.38;;;10.50;99.90;;;;;;5046312;28;20406;-83
2022/06/01 02:37:46;;;;;;;13.48;11.70;;;10.50;99.90;;;;;;5028218;28;20452;-84
2022/06/01 02:40:17;;;;;;;13.50;12.10;;;10.50;99.90;;;;;;5046058;28;20052;-83
2022/06/01 02:42:50;;;;;;;14.52;12.52;;;10.50;99.90;;;;;;5045703;28;20037;-83
2022/06/01 02:45:16;;;;;;;13.93;12.43;;;10.50;99.90;;;;;;5044661;28;20135;-83
2022/06/01 02:47:44;;;;;;;15.27;12.82;;;10.50;99.90;;;;;;5029427;28;20041;-83
2022/06/01 02:50:16;;;;;;;13.27;11.88;;;10.40;99.90;;;;;;5046517;28;20487;-83
2022/06/01 02:52:42;;;;;;;14.88;12.80;;;10.40;99.90;;;;;;5029086;28;20041;-83
2022/06/01 02:55:09;;;;;;;14.48;12.65;;;10.40;99.90;;;;;;5045705;28;20403;-83
2022/06/01 02:57:37;;;;;;;14.35;12.18;;;10.40;99.90;;;;;;5045954;28;20090;-83
2022/06/01 03:00:07;;;;;;;14.05;11.85;;;10.40;99.90;;;;;;5046897;28;20563;-83
2022/06/01 03:02:34;;;;;;;14.63;12.07;;;10.40;99.90;;;;;;5046230;28;20044;-83
2022/06/01 03:04:59;;;;;;;14.23;12.45;;;10.50;99.90;;;;;;5045603;28;20045;-83
2022/06/01 03:07:25;;;;;;;14.65;12.85;;;10.40;99.90;;;;;;5045167;28;20059;-83
2022/06/01 03:09:50;;;;;;;15.82;13.05;;;10.50;99.90;;;;;;5046094;28;20037;-83
2022/06/01 03:12:16;;;;;;;15.90;12.90;;;10.50;99.90;;;;;;5028546;28;20040;-83
2022/06/01 03:14:42;;;;;;;15.95;12.80;;;10.50;99.90;;;;;;5029842;28;20130;-84
2022/06/01 03:17:08;;;;;;;14.40;12.63;;;10.50;99.90;;;;;;5028034;28;20033;-84
2022/06/01 03:19:33;;;;;;;14.18;12.52;;;10.50;99.90;;;;;;5046719;28;20033;-84
2022/06/01 03:22:01;;;;;;;15.75;13.88;;;10.50;99.90;;;;;;5042811;28;20036;-84
2022/06/01 03:24:26;;;;;;;18.63;13.80;;;10.50;99.90;;;;;;5044534;28;20517;-83
2022/06/01 03:26:52;;;;;;;13.95;12.45;;;10.50;99.90;;;;;;5045494;28;20037;-83
2022/06/01 03:29:18;;;;;;;15.35;13.20;;;10.60;99.90;;;;;;5044146;28;20410;-83
2022/06/01 03:31:43;;;;;;;14.55;13.05;;;10.60;99.90;;;;;;5044387;28;20517;-83
2022/06/01 03:34:10;;;;;;;14.50;13.00;;;10.60;99.90;;;;;;5044568;28;20072;-83
2022/06/01 03:36:36;;;;;;;15.18;13.55;;;10.60;99.90;;;;;;5045991;28;20037;-83
2022/06/01 03:39:02;;;;;;;15.70;12.90;;;10.60;99.90;;;;;;5028543;28;20117;-83
2022/06/01 03:41:28;;;;;;;16.70;13.23;;;10.60;99.90;;;;;;5046708;28;20407;-83
2022/06/01 03:46:39;;;;;;;16.10;13.95;;;10.60;99.90;;;;;;5044835;28;20045;-83
2022/06/01 03:49:05;;;;;;;15.63;13.93;;;10.60;99.90;;;;;;5044791;28;20044;-83
2022/06/01 03:51:30;;;;;;;16.25;14.40;;;10.60;99.90;;;;;;5028621;28;20044;-83
2022/06/01 03:53:56;;;;;;;17.13;14.68;;;10.50;99.90;;;;;;5045042;28;20123;-83
2022/06/01 03:56:22;;;;;;;16.65;14.68;;;10.50;99.90;;;;;;5028506;28;20111;-83
2022/06/01 03:58:52;;;;;;;17.35;14.85;;;10.50;99.90;;;;;;5045457;28;20052;-83
2022/06/01 04:01:19;;;;;;;17.42;15.52;;;10.60;99.90;;;;;;5043535;28;20048;-83
2022/06/01 04:03:45;;;;;;;18.60;14.98;;;10.60;99.90;;;;;;5042312;28;20072;-83
2022/06/01 04:06:12;;;;;;;16.40;14.32;;;10.70;99.90;;;;;;5046264;28;20040;-83
2022/06/01 04:08:37;;;;;;;15.98;14.13;;;10.70;99.90;;;;;;5044896;28;20045;-83
2022/06/01 04:11:03;;;;;;;16.38;13.98;;;10.80;99.90;;;;;;5045619;28;20402;-83
2022/06/01 04:13:29;;;;;;;17.73;15.70;;;10.80;99.90;;;;;;5045480;28;20044;-84
2022/06/01 04:15:55;;;;;;;17.60;15.90;;;10.80;99.90;;;;;;5044582;28;20118;-84
2022/06/01 04:18:21;;;;;;;17.70;15.40;;;10.80;99.90;;;;;;5044724;28;20060;-84
2022/06/01 04:20:50;;;;;;;21.92;16.33;;;10.80;99.90;;;;;;5044857;28;20130;-83
2022/06/01 04:23:16;;;;;;;16.50;14.45;;;10.90;99.90;;;;;;5043670;28;20116;-84
2022/06/01 04:25:41;;;;;;;18.08;15.93;;;10.90;99.90;;;;;;5044657;28;20123;-83
2022/06/01 04:28:07;;;;;;;19.13;16.55;;;10.90;99.90;;;;;;5047605;28;20048;-84
2022/06/01 04:30:33;;;;;;;19.10;17.13;;;10.90;99.90;;;;;;5048398;28;20047;-83
2022/06/01 04:32:59;;;;;;;19.38;17.35;;;10.90;99.90;;;;;;5031885;28;20068;-84
2022/06/01 04:35:25;;;;;;;18.20;15.85;;;11.00;99.90;;;;;;5047551;28;20045;-83
2022/06/01 04:37:51;;;;;;;17.67;15.85;;;10.90;99.90;;;;;;5049648;28;20043;-83
2022/06/01 04:40:19;;;;;;;17.10;15.30;;;10.90;99.90;;;;;;5048148;28;20099;-83
2022/06/01 04:42:45;;;;;;;16.80;14.88;;;10.90;99.90;;;;;;5033392;28;20033;-83
2022/06/01 04:45:12;;;;;;;17.80;15.85;;;10.90;99.90;;;;;;5048137;28;20426;-83
2022/06/01 04:47:38;;;;;;;17.42;15.70;;;11.00;99.90;;;;;;5048500;28;20556;-83
2022/06/01 04:50:05;;;;;;;18.05;16.15;;;11.00;99.90;;;;;;5033450;28;20041;-83
2022/06/01 04:52:31;;;;;;;19.90;16.70;;;11.00;99.90;;;;;;5048912;28;20415;-83
2022/06/01 04:54:57;;;;;;;20.35;17.25;;;11.00;99.90;;;;;;5045951;28;20392;-83
2022/06/01 04:57:23;;;;;;;18.23;16.35;;;11.10;99.90;;;;;;5048345;28;20087;-83
2022/06/01 04:59:49;;;;;;;18.90;16.55;;;11.10;99.90;;;;;;5049223;28;20033;-83
2022/06/01 05:02:15;;;;;;;17.50;15.63;;;11.10;99.90;;;;;;5047299;28;20047;-83
2022/06/01 05:04:40;;;;;;;17.48;15.70;;;11.10;99.90;;;;;;5048307;28;20116;-83
2022/06/01 05:07:07;;;;;;;18.15;15.93;;;11.10;99.90;;;;;;5050408;28;20029;-83
2022/06/01 05:09:33;;;;;;;18.73;16.58;;;11.00;99.90;;;;;;5049519;28;20043;-83
2022/06/01 05:11:58;;;;;;;17.45;15.65;;;11.00;99.90;;;;;;5050487;28;20044;-82
2022/06/01 05:14:24;;;;;;;17.80;15.90;;;10.90;99.90;;;;;;5047997;28;20032;-82
2022/06/01 05:16:50;;;;;;;19.42;17.52;;;11.00;99.90;;;;;;5048854;28;20036;-82
2022/06/01 05:19:16;;;;;;;20.33;17.40;;;11.10;99.90;;;;;;5047865;28;20041;-82
2022/06/01 05:21:41;;;;;;;18.77;16.67;;;11.30;99.90;;;;;;5049035;28;20033;-82
2022/06/01 05:24:07;;;;;;;20.63;17.02;;;11.40;99.90;;;;;;5049170;28;20047;-82
2022/06/01 05:26:33;;;;;;;19.55;17.58;;;11.50;99.90;;;;;;5048233;28;20041;-83
2022/06/01 05:28:58;;;;;;;18.63;16.73;;;11.60;99.90;;;;;;5045078;28;20052;-82
2022/06/01 05:31:24;;;;;;;19.02;16.80;;;11.70;99.90;;;;;;5049337;28;20032;-82
2022/06/01 05:33:50;;;;;;;20.42;17.52;;;11.70;99.90;;;;;;5050406;28;20060;-82
2022/06/01 05:36:17;;;;;;;18.77;16.83;;;11.70;99.90;;;;;;5046031;28;20045;-82
2022/06/01 05:38:45;;;;;;;18.35;16.40;;;11.60;99.90;;;;;;5048120;28;20068;-82
2022/06/01 05:41:15;;;;;;;20.30;16.75;;;11.60;99.90;;;;;;5034248;28;20036;-82
2022/06/01 05:43:41;;;;;;;19.80;17.77;;;11.60;99.90;;;;;;5048500;28;20124;-82
2022/06/01 05:46:06;;;;;;;19.58;17.40;;;11.60;99.90;;;;;;5047917;28;20141;-81
2022/06/01 05:48:32;;;;;;;19.75;17.45;;;11.60;99.90;;;;;;5048786;28;20044;-81
2022/06/01 05:50:58;;;;;;;18.85;16.88;;;11.60;99.90;;;;;;5049109;28;20040;-81
2022/06/01 05:53:24;;;;;;;21.40;18.35;;;11.90;99.90;;;;;;5031490;28;20045;-82
2022/06/01 05:55:50;;;;;;;19.55;17.63;;;12.10;99.90;;;;;;5047392;28;20056;-81
2022/06/01 05:58:19;;;;;;;19.55;17.55;;;12.30;99.90;;;;;;5047105;28;20039;-81
2022/06/01 06:00:46;;;;;;;18.50;16.60;;;12.50;99.90;;;;;;5046279;28;20029;-81
2022/06/01 06:03:13;;;;;;;18.35;16.35;;;12.70;99.90;;;;;;5048530;28;20129;-81
2022/06/01 06:08:24;;;;;;;16.83;15.13;;;13.30;99.90;;;;;;5048002;28;20444;-81
2022/06/01 06:10:49;;;;;;;16.45;14.77;;;13.60;99.90;;;;;;5049836;28;20049;-81
2022/06/01 06:13:15;;;;;;;14.43;12.93;;;13.80;99.90;;;;;;5044574;28;20053;-81
2022/06/01 06:15:41;;;;;;;11.43;10.13;;;13.80;99.90;;;;;;5046706;28;20041;-81
2022/06/01 06:18:09;;;;;;;13.55;10.23;;;13.80;99.90;;;;;;5045816;28;20457;-81
2022/06/01 06:20:35;;;;;;;9.88;8.88;;;13.80;99.90;;;;;;5061541;28;20086;-81
2022/06/01 06:23:01;;;;;;;10.77;9.68;;;13.80;99.90;;;;;;5045497;28;20461;-81
2022/06/01 06:25:27;;;;;;;11.02;9.73;;;13.70;99.90;;;;;;5030376;28;20132;-81
2022/06/01 06:27:52;;;;;;;11.65;10.10;;;13.70;99.90;;;;;;5049110;28;20068;-81
2022/06/01 06:30:19;;;;;;;12.48;10.15;;;13.60;99.90;;;;;;5031964;28;20123;-81
2022/06/01 06:32:45;;;;;;;10.95;9.85;;;13.50;99.90;;;;;;5048378;28;20039;-81
2022/06/01 06:35:11;;;;;;;11.68;10.48;;;13.40;99.90;;;;;;5047373;28;20398;-82
2022/06/01 06:37:37;;;;;;;7.85;7.03;;;13.30;99.90;;;;;;5051888;28;20037;-83
2022/06/01 06:40:03;;;;;;;10.80;6.70;;;13.10;99.90;;;;;;5048534;28;20032;-84
2022/06/01 06:42:29;;;;;;;9.35;6.55;;;12.90;99.90;;;;;;5029881;28;20115;-84
2022/06/01 06:44:54;;;;;;;14.10;6.78;;;12.60;99.90;;;;;;5049205;28;20136;-84
2022/06/01 06:47:20;;;;;;;9.88;6.72;;;12.40;99.90;;;;;;5046295;28;20044;-83
2022/06/01 06:49:46;;;;;;;7.43;5.47;;;12.30;99.90;;;;;;5045597;28;20120;-83
2022/06/01 06:52:12;;;;;;;5.97;5.38;;;12.10;99.90;;;;;;5043018;28;20036;-83
2022/06/01 06:54:37;;;;;;;5.90;4.78;;;11.90;99.90;;;;;;5028718;28;20029;-83
2022/06/01 06:57:03;;;;;;;4.97;3.97;;;11.80;99.90;;;;;;5046277;28;20033;-83
2022/06/01 06:59:29;;;;;;;4.55;3.63;;;11.70;99.90;;;;;;5030387;28;20049;-84
2022/06/01 07:01:54;;;;;;;5.20;3.45;;;11.70;99.90;;;;;;5046920;28;20036;-83
2022/06/01 07:04:20;;;;;;;4.05;3.45;;;11.60;99.90;;;;;;5046225;28;20041;-83
2022/06/01 07:06:46;;;;;;;3.80;2.85;;;11.50;99.90;;;;;;5046791;28;20107;-82
2022/06/01 07:09:12;;;;;;;3.10;2.72;;;11.50;99.90;;;;;;5050834;28;20132;-82
2022/06/01 07:11:38;;;;;;;4.97;3.70;;;11.50;99.90;;;;;;5050805;28;20132;-82
2022/06/01 07:14:04;;;;;;;5.43;3.72;;;11.60;99.90;;;;;;5050716;28;20084;-81
2022/06/01 07:16:32;;;;;;;4.40;4.00;;;11.70;99.90;;;;;;5050130;28;20037;-81
2022/06/01 07:19:00;;;;;;;5.25;4.50;;;11.80;99.90;;;;;;5051579;28;20135;-81
2022/06/01 07:21:28;;;;;;;6.28;4.47;;;11.90;99.90;;;;;;5051083;28;20091;-81
2022/06/01 07:23:54;;;;;;;5.38;4.55;;;12.00;99.90;;;;;;5047693;28;20487;-81
2022/06/01 07:26:30;;;;;;;5.82;4.97;;;12.10;99.90;;;;;;5046485;28;20041;-81
2022/06/01 07:28:56;;;;;;;6.07;5.15;;;12.20;99.90;;;;;;5043317;28;20518;-81
2022/06/01 07:31:22;;;;;;;6.60;5.60;;;12.30;99.90;;;;;;5046439;28;20041;-81
2022/06/01 07:33:48;;;;;;;6.82;5.38;;;12.40;99.90;;;;;;5045288;28;20563;-81
2022/06/01 07:36:16;;;;;;;7.78;6.20;;;12.50;99.90;;;;;;5048383;28;20042;-80
2022/06/01 07:44:41;;;;;;;9.10;7.85;;;13.40;99.90;;;;;;5013498;28;20192;-80
2022/06/01 07:47:08;;;;;;;8.30;7.47;;;14.00;99.90;;;;;;4997575;28;20424;-81
2022/06/01 07:49:34;;;;;;;9.38;8.25;;;14.30;99.90;;;;;;5013648;28;20049;-80
2022/06/01 07:52:00;;;;;;;12.43;9.88;;;14.70;99.90;;;;;;5049987;28;20033;-79
2022/06/01 07:54:26;;;;;;;14.00;10.70;;;15.00;99.90;;;;;;5045873;28;20045;-80
2022/06/01 07:56:51;;;;;;;10.93;9.70;;;15.10;99.90;;;;;;5032242;28;20040;-80
2022/06/01 07:59:17;;;;;;;11.15;9.95;;;15.30;99.90;;;;;;5047285;28;20175;-80
2022/06/01 08:01:43;;;;;;;11.63;10.25;;;15.20;99.90;;;;;;5050530;28;20148;-80
2022/06/01 08:04:10;;;;;;;12.45;10.65;;;15.10;99.90;;;;;;5050742;28;20037;-80
2022/06/01 08:06:38;;;;;;;11.13;9.90;;;15.10;99.90;;;;;;5028554;28;20078;-81
2022/06/01 08:09:04;;;;;;;11.75;10.55;;;15.00;99.90;;;;;;5050813;28;20516;-81
2022/06/01 08:14:24;;;;;;;;;;;14.90;99.90;;;;;;4990277;28;20046;-81
2022/06/01 08:16:50;;;;;;;12.63;10.43;;;14.80;99.90;;;;;;5041233;28;19999;-80
2022/06/01 08:19:16;;;;;;;13.88;10.68;;;15.00;99.90;;;;;;5047899;28;20502;-81
2022/06/01 08:21:43;;;;;;;10.90;9.80;;;15.10;99.90;;;;;;5050259;28;20068;-81
2022/06/01 08:24:09;;;;;;;11.40;9.43;;;14.90;99.90;;;;;;5043557;28;20037;-81
2022/06/01 08:26:35;;;;;;;9.80;8.90;;;14.80;99.90;;;;;;5034428;28;20033;-81
2022/06/01 08:29:02;;;;;;;9.45;8.38;;;14.70;99.90;;;;;;5034426;28;20041;-81
2022/06/01 08:31:29;;;;;;;10.60;8.55;;;14.70;99.90;;;;;;5049832;28;20045;-81
2022/06/01 08:33:59;;;;;;;9.32;8.48;;;14.60;99.90;;;;;;5046758;28;20044;-81
2022/06/01 08:36:25;;;;;;;8.50;7.70;;;14.50;99.90;;;;;;5047596;28;20414;-81
2022/06/01 08:38:50;;;;;;;8.48;7.57;;;14.30;99.90;;;;;;5048758;28;20033;-81
2022/06/01 08:41:19;;;;;;;10.20;7.60;;;14.20;99.90;;;;;;5049901;28;20138;-81
2022/06/01 08:43:58;;;;;;;9.40;7.90;;;14.20;99.90;;;;;;5040590;28;20098;-81
2022/06/01 08:46:26;;;;;;;11.57;8.75;;;14.20;99.90;;;;;;5051671;28;20053;-81
2022/06/01 08:49:19;;;;;;;10.35;9.13;;;14.20;99.90;;;;;;5051032;28;20037;-81
2022/06/01 08:51:44;;;;;;;10.93;9.77;;;14.20;99.90;;;;;;5051171;28;20635;-81
2022/06/01 08:54:10;;;;;;;10.77;9.68;;;14.40;99.90;;;;;;5050596;28;20115;-81
2022/06/01 08:56:44;;;;;;;10.52;9.48;;;14.80;99.90;;;;;;5051331;28;20119;-81
2022/06/01 08:59:13;;;;;;;;;;;15.00;99.90;;;;;;5051439;28;20025;-81
2022/06/01 09:01:52;;;;;;;11.52;9.88;;;15.30;99.90;;;;;;5046973;28;19917;-81
2022/06/01 09:04:37;;;;;;;11.27;10.07;;;15.60;99.90;;;;;;5042705;28;20048;-81
2022/06/01 09:07:23;;;;;;;10.55;9.50;;;15.70;99.90;;;;;;5044106;28;20036;-82
2022/06/01 09:10:24;;;;;;;9.05;8.15;;;15.80;99.90;;;;;;5043326;28;20095;-81
2022/06/01 09:13:01;;;;;;;10.50;9.50;;;16.10;99.90;;;;;;5053286;28;20040;-81
2022/06/01 09:15:31;;;;;;;10.15;9.15;;;16.10;99.90;;;;;;5051113;28;20094;-80
2022/06/01 09:17:57;;;;;;;8.95;8.05;;;16.00;99.90;;;;;;5053645;28;20068;-81
2022/06/01 09:23:14;;;;;;;6.55;5.60;;;15.50;99.90;;;;;;5050472;28;20434;-80
2022/06/01 09:25:50;;;;;;;6.78;5.55;;;15.30;99.90;;;;;;5052899;28;20556;-81
2022/06/01 09:28:25;;;;;;;7.50;5.88;;;15.00;99.90;;;;;;5054114;28;20456;-80
2022/06/01 09:31:08;;;;;;;6.68;5.97;;;14.80;99.90;;;;;;5038748;28;20124;-81
2022/06/01 09:33:37;;;;;;;8.47;7.27;;;14.60;99.90;;;;;;5033752;28;20048;-82
2022/06/01 09:36:09;;;;;;;8.35;7.50;;;14.50;99.90;;;;;;5052184;28;20041;-82
2022/06/01 09:38:46;;;;;;;8.55;7.65;;;14.50;99.90;;;;;;5053139;28;20068;-82
2022/06/01 09:41:39;;;;;;;8.93;7.60;;;14.50;99.90;;;;;;5036993;28;20055;-82
2022/06/01 09:44:32;;;;;;;9.10;7.60;;;14.50;99.90;;;;;;5052684;28;20041;-81
2022/06/01 09:47:00;;;;;;;9.18;7.40;;;14.50;99.90;;;;;;5054339;28;20415;-81
2022/06/01 09:49:30;;;;;;;8.38;7.57;;;14.60;99.90;;;;;;5053269;28;20052;-81
2022/06/01 09:52:02;;;;;;;8.15;7.30;;;14.80;99.90;;;;;;5037307;28;20458;-80
2022/06/01 09:54:33;;;;;;;8.82;7.93;;;15.10;99.90;;;;;;5053049;28;20049;-81
2022/06/01 09:57:19;;;;;;;7.53;6.80;;;15.30;99.90;;;;;;5053841;28;20047;-81
2022/06/01 10:08:16;;;;;;;;;;;16.40;99.90;;;;;;5054017;28;20122;-81
2022/06/01 10:10:56;;;;;;;6.72;5.15;;;16.20;99.90;;;;;;5053978;28;19916;-80
2022/06/01 10:13:34;;;;;;;7.07;5.75;;;16.20;99.90;;;;;;5037069;28;20041;-80
2022/06/01 10:16:22;;;;;;;6.72;5.55;;;16.00;99.90;;;;;;5036564;28;20044;-81
2022/06/01 10:18:49;;;;;;;6.55;5.03;;;15.80;99.90;;;;;;5054098;28;20045;-81
2022/06/01 10:21:20;;;;;;;11.68;5.03;;;15.40;99.90;;;;;;5053185;28;20048;-80
2022/06/01 10:24:04;;;;;;;4.95;4.45;;;15.20;99.90;;;;;;5053056;28;20041;-80
2022/06/01 10:26:36;;;;;;;3.92;3.53;;;15.00;99.90;;;;;;5053496;28;20100;-81
2022/06/01 10:29:18;;;;;;;4.93;4.32;;;14.80;99.90;;;;;;5053842;28;20502;-82
2022/06/01 10:32:01;;;;;;;4.93;4.43;;;14.90;99.90;;;;;;5036997;28;20037;-81
2022/06/01 10:34:48;;;;;;;4.43;4.03;;;15.00;99.90;;;;;;5052764;28;20048;-80
2022/06/01 10:37:19;;;;;;;4.65;4.18;;;15.10;99.90;;;;;;5054411;28;20502;-81
2022/06/01 10:39:52;;;;;;;4.60;4.20;;;15.10;99.90;;;;;;5052647;28;20098;-81
2022/06/01 10:45:16;;;;;;;4.22;3.83;;;15.00;99.90;;;;;;5053616;28;20407;-81
2022/06/01 10:48:05;;;;;;;5.22;4.72;;;14.90;99.90;;;;;;5054103;28;20041;-81
2022/06/01 10:50:47;;;;;;;4.47;3.90;;;14.80;99.90;;;;;;5053945;28;20077;-81
2022/06/01 10:53:19;;;;;;;6.68;4.70;;;14.80;99.90;;;;;;5053517;28;20518;-81
2022/06/01 10:55:45;;;;;;;6.57;5.78;;;14.70;99.90;;;;;;5052644;28;20407;-81
2022/06/01 10:58:23;;;;;;;4.95;4.43;;;14.60;99.90;;;;;;5052496;28;20037;-83
2022/06/01 11:01:01;;;;;;;4.30;3.30;;;14.50;99.90;;;;;;5048571;28;20048;-83
2022/06/01 11:04:01;;;;;;;4.28;2.85;;;14.10;99.90;;;;;;5031544;28;20078;-82
2022/06/01 11:06:40;;;;;;;5.00;3.25;;;13.80;99.90;;;;;;5050067;28;20124;-82
2022/06/01 11:09:18;;;;;;;3.90;2.92;;;13.70;99.90;;;;;;5049538;28;20051;-82
2022/06/01 11:11:50;;;;;;;4.82;2.92;;;13.70;99.90;;;;;;5051518;28;20102;-81
2022/06/01 11:14:57;;;;;;;3.35;2.90;;;13.80;99.90;;;;;;5029103;28;20102;-81
2022/06/01 11:17:46;;;;;;;3.10;2.40;;;13.70;99.90;;;;;;5051104;28;20057;-81
2022/06/01 11:20:36;;;;;;;2.65;2.10;;;13.60;99.90;;;;;;5047048;28;20068;-81
2022/06/01 11:23:27;;;;;;;2.95;2.35;;;13.50;99.90;;;;;;5061992;28;20514;-81
2022/06/01 11:26:02;;;;;;;2.67;2.10;;;13.40;99.90;;;;;;5049878;28;20036;-81
2022/06/01 11:28:37;;;;;;;2.75;2.50;;;13.50;99.90;;;;;;5056286;28;20040;-81
2022/06/01 11:31:19;;;;;;;2.67;2.10;;;13.40;99.90;;;;;;5060874;28;20032;-80
2022/06/01 11:34:05;;;;;;;3.22;2.50;;;13.50;99.90;;;;;;5051268;28;20075;-80
2022/06/01 11:36:37;;;;;;;4.15;2.70;;;13.70;99.90;;;;;;5053109;28;20200;-81
2022/06/01 11:39:19;;;;;;;4.20;2.83;;;13.80;99.90;;;;;;5046947;28;20084;-81
2022/06/01 11:41:58;;;;;;;2.80;2.45;;;14.10;99.90;;;;;;5048746;28;20037;-81
2022/06/01 11:44:53;;;;;;;3.55;2.30;;;14.30;99.90;;;;;;5051758;28;20529;-81
2022/06/01 11:47:21;;;;;;;2.67;2.28;;;14.80;99.90;;;;;;5051997;28;20084;-80
2022/06/01 11:50:25;;;;;;;2.83;2.00;;;15.20;99.90;;;;;;5049962;28;20040;-80
2022/06/01 11:52:56;;;;;;;2.58;2.00;;;15.70;99.90;;;;;;5041046;28;20051;-80
2022/06/01 11:55:31;;;;;;;2.47;2.28;;;16.40;99.90;;;;;;5052755;28;20072;-81
2022/06/01 11:58:22;;;;;;;3.72;2.67;;;16.40;99.90;;;;;;5052548;28;20056;-80
2022/06/01 12:00:52;;;;;;;3.22;2.78;;;16.50;99.90;;;;;;5049794;28;20120;-80
2022/06/01 12:03:20;;;;;;;4.47;3.22;;;16.60;99.90;;;;;;5053882;28;20032;-83
2022/06/01 12:06:07;;;;;;;3.70;3.15;;;16.40;99.90;;;;;;5050969;28;20037;-80
2022/06/01 12:08:56;;;;;;;5.65;3.30;;;16.30;99.90;;;;;;5048914;28;20040;-79
2022/06/01 12:11:40;;;;;;;3.30;3.00;;;16.20;99.90;;;;;;5048231;28;20067;-79
2022/06/01 12:14:24;;;;;;;3.47;3.10;;;16.30;99.90;;;;;;5048284;28;20033;-80
2022/06/01 12:17:17;;;;;;;3.40;2.95;;;16.10;99.90;;;;;;5048905;28;20169;-80
2022/06/01 12:19:47;;;;;;;5.60;2.97;;;16.10;99.90;;;;;;5052439;28;20107;-81
2022/06/01 12:28:56;;;;;;;2.50;2.30;;;15.90;99.90;;;;;;5052212;28;20491;-81
2022/06/01 12:31:28;;;;;;;1.88;1.67;;;15.70;99.90;;;;;;5051797;28;20037;-81
2022/06/01 12:34:06;;;;;;;4.22;1.30;;;15.50;99.90;;;;;;5051776;28;20044;-80
2022/06/01 12:36:44;;;;;;;1.95;1.10;;;15.30;99.90;;;;;;5035021;28;20045;-82
2022/06/01 12:39:41;;;;;;;2.60;1.02;;;14.90;99.90;;;;;;5053532;28;20029;-81
2022/06/01 12:42:20;;;;;;;2.63;1.30;;;14.60;99.90;;;;;;5049068;28;20043;-81
2022/06/01 12:44:50;;;;;;;2.45;1.55;;;14.30;99.90;;;;;;5048024;28;20056;-82
2022/06/01 12:47:32;;;;;;;4.15;1.67;;;14.10;99.90;;;;;;5041991;28;20522;-83
2022/06/01 12:50:18;;;;;;;5.43;1.63;;;13.80;99.90;;;;;;5046288;28;20078;-83
2022/06/01 12:52:43;;;;;;;2.83;1.63;;;13.70;99.90;;;;;;5045857;28;20033;-82
2022/06/01 12:55:12;;;;;;;3.10;1.95;;;13.40;99.90;;;;;;5035313;28;20139;-82
2022/06/01 12:57:47;;;;;;;2.92;1.92;;;13.30;99.90;;;;;;5053149;28;20083;-84
2022/06/01 13:00:26;;;;;;;2.92;2.03;;;13.20;99.90;;;;;;5052272;28;20029;-83
2022/06/01 13:02:52;;;;;;;3.20;2.13;;;13.20;99.90;;;;;;5066440;28;20037;-83
2022/06/01 13:05:35;;;;;;;2.92;1.83;;;13.10;99.90;;;;;;5052408;28;20037;-83
2022/06/01 13:08:01;;;;;;;3.58;2.00;;;13.00;99.90;;;;;;5052393;28;20116;-82
2022/06/01 13:10:33;;;;;;;3.05;1.90;;;12.80;99.90;;;;;;5035643;28;20044;-83
2022/06/01 13:13:11;;;;;;;2.97;1.80;;;12.70;99.90;;;;;;5035284;28;20044;-83
2022/06/01 13:15:38;;;;;;;2.70;1.80;;;12.80;99.90;;;;;;5052117;28;20041;-82
2022/06/01 13:18:13;;;;;;;2.60;1.85;;;12.90;99.90;;;;;;5052070;28;20510;-82
2022/06/01 13:20:46;;;;;;;2.45;1.80;;;12.90;99.90;;;;;;5052883;28;20048;-83
2022/06/01 13:23:11;;;;;;;3.55;1.67;;;13.00;99.90;;;;;;5051879;28;20037;-83
2022/06/01 13:25:38;;;;;;;3.50;1.80;;;13.00;99.90;;;;;;5052380;28;20041;-83
2022/06/01 13:28:04;;;;;;;2.00;1.70;;;13.10;99.90;;;;;;5051866;28;20044;-82
2022/06/01 13:30:32;;;;;;;1.90;1.60;;;13.30;99.90;;;;;;5052728;28;20166;-82
2022/06/01 13:32:58;;;;;;;2.13;1.50;;;13.60;99.90;;;;;;5053152;28;20124;-81
2022/06/01 13:35:42;;;;;;;2.08;1.50;;;13.80;99.90;;;;;;5069030;28;20048;-80